createdAt,value
2017-04-26T00:00:54.871Z,16.44
2017-04-26T00:02:04.292Z,16.36
2017-04-26T00:03:14.640Z,16.45
2017-04-26T00:04:25.003Z,16.47
2017-04-26T00:05:35.353Z,16.42
2017-04-26T00:06:45.702Z,16.47
2017-04-26T00:07:55.773Z,16.4
2017-04-26T00:09:05.820Z,16.49
2017-04-26T00:10:16.175Z,16.49
2017-04-26T00:11:26.515Z,16.49
2017-04-26T00:12:36.866Z,16.42
2017-04-26T00:13:47.218Z,16.45
2017-04-26T00:14:57.586Z,16.49
2017-04-26T00:16:07.927Z,16.34
2017-04-26T00:17:18.266Z,16.42
2017-04-26T00:18:28.374Z,16.33
2017-04-26T00:19:38.425Z,16.3
2017-04-26T00:20:48.796Z,16.21
2017-04-26T00:21:59.372Z,16.26
2017-04-26T00:23:09.723Z,16.14
2017-04-26T00:24:19.762Z,16.11
2017-04-26T00:25:30.166Z,16
2017-04-26T00:26:40.518Z,16.04
2017-04-26T00:27:50.877Z,16.02
2017-04-26T00:29:00.916Z,15.96
2017-04-26T00:30:11.009Z,15.96
2017-04-26T00:31:21.360Z,15.96
2017-04-26T00:32:31.398Z,15.96
2017-04-26T00:33:41.441Z,15.88
2017-04-26T00:34:51.178Z,15.89
2017-04-26T00:36:01.534Z,15.81
2017-04-26T00:37:11.625Z,15.75
2017-04-26T00:38:21.972Z,15.65
2017-04-26T00:39:32.318Z,15.68
2017-04-26T00:40:42.371Z,15.68
2017-04-26T00:41:52.709Z,15.56
2017-04-26T00:43:03.085Z,15.47
2017-04-26T00:44:13.451Z,15.56
2017-04-26T00:45:23.801Z,15.59
2017-04-26T00:46:34.149Z,15.56
2017-04-26T00:47:44.196Z,15.56
2017-04-26T00:48:54.548Z,15.55
2017-04-26T00:50:04.270Z,15.49
2017-04-26T00:51:14.607Z,15.47
2017-04-26T00:52:24.950Z,15.51
2017-04-26T00:53:35.347Z,15.45
2017-04-26T00:54:45.713Z,15.51
2017-04-26T00:55:56.037Z,15.45
2017-04-26T00:57:06.385Z,15.47
2017-04-26T00:58:16.759Z,15.45
2017-04-26T00:59:27.131Z,15.44
2017-04-26T01:00:37.485Z,15.41
2017-04-26T01:01:47.833Z,15.37
2017-04-26T01:02:58.174Z,15.34
2017-04-26T01:04:07.907Z,15.16
2017-04-26T01:05:18.305Z,15.23
2017-04-26T01:06:28.025Z,15.1
2017-04-26T01:07:38.374Z,15.18
2017-04-26T01:08:48.733Z,15.07
2017-04-26T01:09:59.086Z,15.02
2017-04-26T01:11:09.157Z,15.08
2017-04-26T01:12:19.503Z,15.05
2017-04-26T01:13:29.845Z,15.05
2017-04-26T01:14:39.870Z,15.02
2017-04-26T01:15:49.916Z,15.12
2017-04-26T01:16:59.963Z,15.04
2017-04-26T01:18:10.301Z,15.02
2017-04-26T01:19:20.329Z,15.02
2017-04-26T01:20:30.368Z,15.05
2017-04-26T01:21:40.723Z,15.01
2017-04-26T01:22:51.102Z,14.89
2017-04-26T01:24:01.458Z,14.93
2017-04-26T01:25:11.490Z,14.87
2017-04-26T01:26:21.458Z,14.83
2017-04-26T01:27:31.499Z,14.8
2017-04-26T01:28:41.538Z,14.79
2017-04-26T01:29:51.565Z,14.59
2017-04-26T01:31:01.610Z,14.67
2017-04-26T01:32:11.941Z,14.7
2017-04-26T01:33:21.662Z,14.53
2017-04-26T01:34:31.709Z,14.56
2017-04-26T01:35:41.750Z,14.57
2017-04-26T01:36:52.104Z,14.69
2017-04-26T01:38:02.144Z,14.59
2017-04-26T01:39:12.198Z,14.57
2017-04-26T01:40:22.596Z,14.59
2017-04-26T01:41:32.946Z,14.63
2017-04-26T01:42:42.972Z,14.53
2017-04-26T01:43:53.011Z,14.52
2017-04-26T01:45:03.350Z,14.48
2017-04-26T01:46:13.721Z,14.49
2017-04-26T01:47:24.079Z,14.49
2017-04-26T01:48:34.421Z,14.44
2017-04-26T01:49:44.784Z,14.45
2017-04-26T01:50:54.855Z,14.38
2017-04-26T01:52:05.246Z,14.3
2017-04-26T01:53:15.590Z,14.42
2017-04-26T01:54:25.949Z,14.38
2017-04-26T01:55:36.290Z,14.28
2017-04-26T01:56:46.315Z,14.34
2017-04-26T01:57:56.649Z,14.34
2017-04-26T01:59:07.001Z,14.31
2017-04-26T02:00:17.363Z,14.16
2017-04-26T02:01:27.400Z,14.27
2017-04-26T02:02:37.752Z,14.23
2017-04-26T02:03:48.122Z,14.2
2017-04-26T02:04:58.466Z,14.15
2017-04-26T02:06:08.807Z,14.2
2017-04-26T02:07:19.177Z,14.12
2017-04-26T02:08:29.214Z,14.11
2017-04-26T02:09:39.252Z,14.12
2017-04-26T02:10:49.290Z,14.06
2017-04-26T02:11:59.636Z,14.13
2017-04-26T02:13:10.003Z,14.15
2017-04-26T02:14:20.344Z,14.16
2017-04-26T02:15:30.733Z,14.2
2017-04-26T02:16:40.764Z,14.15
2017-04-26T02:17:51.142Z,14.11
2017-04-26T02:19:01.172Z,14.08
2017-04-26T02:20:11.197Z,14.08
2017-04-26T02:21:21.544Z,14.09
2017-04-26T02:22:31.897Z,14.16
2017-04-26T02:23:42.244Z,14.16
2017-04-26T02:24:52.603Z,14.23
2017-04-26T02:26:02.977Z,14.2
2017-04-26T02:27:13.330Z,14.16
2017-04-26T02:28:23.674Z,14.21
2017-04-26T02:29:34.012Z,14.19
2017-04-26T02:30:44.372Z,14.19
2017-04-26T02:31:54.421Z,14.13
2017-04-26T02:33:04.755Z,14.21
2017-04-26T02:34:14.824Z,14.16
2017-04-26T02:35:25.181Z,14.2
2017-04-26T02:36:35.519Z,14.2
2017-04-26T02:37:46.104Z,14.23
2017-04-26T02:38:56.451Z,14.26
2017-04-26T02:40:06.796Z,14.24
2017-04-26T02:41:17.139Z,14.21
2017-04-26T02:42:27.164Z,14.28
2017-04-26T02:43:37.520Z,14.31
2017-04-26T02:44:47.908Z,14.27
2017-04-26T02:45:57.951Z,14.28
2017-04-26T02:47:08.310Z,14.28
2017-04-26T02:48:18.654Z,14.33
2017-04-26T02:49:29.020Z,14.36
2017-04-26T02:50:39.385Z,14.36
2017-04-26T02:51:49.727Z,14.41
2017-04-26T02:52:59.781Z,14.41
2017-04-26T02:54:10.139Z,14.42
2017-04-26T02:55:20.498Z,14.39
2017-04-26T02:56:30.865Z,14.3
2017-04-26T02:57:41.204Z,14.42
2017-04-26T02:58:51.237Z,14.44
2017-04-26T03:00:01.291Z,14.36
2017-04-26T03:01:11.663Z,14.41
2017-04-26T03:32:52.935Z,11.42
2017-04-26T03:34:03.265Z,11.35
2017-04-26T03:35:13.288Z,11.38
2017-04-26T03:36:23.627Z,11.43
2017-04-26T03:37:33.972Z,11.59
2017-04-26T03:38:44.000Z,11.61
2017-04-26T03:39:54.029Z,11.76
2017-04-26T03:41:04.365Z,11.81
2017-04-26T03:42:14.749Z,11.91
2017-04-26T03:43:25.114Z,12.07
2017-04-26T03:44:35.432Z,12.22
2017-04-26T03:45:45.775Z,12.23
2017-04-26T03:46:56.105Z,12.43
2017-04-26T03:48:06.167Z,12.53
2017-04-26T03:49:16.514Z,12.65
2017-04-26T03:50:26.268Z,12.81
2017-04-26T03:51:36.640Z,12.88
2017-04-26T03:52:46.990Z,13.01
2017-04-26T03:53:57.341Z,13.09
2017-04-26T03:55:07.361Z,13.25
2017-04-26T03:56:17.069Z,13.36
2017-04-26T03:57:27.424Z,13.36
2017-04-26T03:58:37.787Z,13.45
2017-04-26T03:59:47.823Z,13.6
2017-04-26T04:00:58.176Z,13.54
2017-04-26T04:02:08.198Z,13.63
2017-04-26T04:03:18.245Z,13.68
2017-04-26T04:04:28.284Z,13.68
2017-04-26T04:05:38.618Z,13.76
2017-04-26T04:06:48.960Z,13.75
2017-04-26T04:07:59.316Z,13.87
2017-04-26T04:09:09.671Z,14.01
2017-04-26T04:10:19.703Z,13.93
2017-04-26T04:11:30.057Z,13.93
2017-04-26T04:12:39.764Z,14.03
2017-04-26T04:13:50.118Z,14.09
2017-04-26T04:14:59.857Z,14.13
2017-04-26T04:16:10.199Z,14.13
2017-04-26T04:17:20.554Z,14.16
2017-04-26T04:18:30.911Z,14.2
2017-04-26T04:19:40.965Z,14.23
2017-04-26T04:20:51.320Z,14.31
2017-04-26T04:22:01.689Z,14.27
2017-04-26T04:23:12.030Z,14.27
2017-04-26T04:24:22.379Z,14.33
2017-04-26T04:25:32.747Z,14.27
2017-04-26T04:26:43.088Z,14.28
2017-04-26T04:27:53.116Z,14.36
2017-04-26T04:29:03.157Z,14.42
2017-04-26T04:30:13.505Z,14.51
2017-04-26T04:31:23.852Z,14.45
2017-04-26T04:32:33.906Z,14.48
2017-04-26T04:33:44.249Z,14.53
2017-04-26T04:34:54.588Z,14.51
2017-04-26T04:36:04.622Z,14.53
2017-04-26T04:37:15.009Z,14.59
2017-04-26T04:38:25.351Z,14.51
2017-04-26T04:39:35.376Z,14.49
2017-04-26T04:40:45.721Z,14.53
2017-04-26T04:41:56.060Z,14.57
2017-04-26T04:43:06.121Z,14.56
2017-04-26T04:44:16.484Z,14.59
2017-04-26T04:45:26.829Z,14.57
2017-04-26T04:46:36.548Z,14.59
2017-04-26T04:47:46.907Z,14.53
2017-04-26T04:48:57.270Z,14.69
2017-04-26T04:50:07.637Z,14.63
2017-04-26T04:51:17.996Z,14.66
2017-04-26T04:52:28.345Z,14.71
2017-04-26T04:53:38.378Z,14.74
2017-04-26T04:54:48.729Z,14.75
2017-04-26T04:55:58.444Z,14.75
2017-04-26T04:57:08.483Z,14.93
2017-04-26T04:58:18.511Z,14.89
2017-04-26T04:59:28.858Z,14.89
2017-04-26T05:00:39.194Z,14.86
2017-04-26T05:01:49.236Z,14.89
2017-04-26T05:02:59.595Z,14.85
2017-04-26T05:04:09.935Z,14.94
2017-04-26T05:05:20.300Z,15
2017-04-26T05:06:30.336Z,15.04
2017-04-26T05:07:40.683Z,15.08
2017-04-26T05:08:50.715Z,15.08
2017-04-26T05:10:01.069Z,15.1
2017-04-26T05:11:11.412Z,15.13
2017-04-26T05:12:21.822Z,15.1
2017-04-26T05:13:32.174Z,15.19
2017-04-26T05:14:42.550Z,15.2
2017-04-26T05:15:52.908Z,15.22
2017-04-26T05:17:03.268Z,15.33
2017-04-26T05:18:13.303Z,15.37
2017-04-26T05:19:23.670Z,15.35
2017-04-26T05:20:34.112Z,15.31
2017-04-26T05:21:44.488Z,15.45
2017-04-26T05:22:54.523Z,15.45
2017-04-26T05:24:04.548Z,15.45
2017-04-26T05:25:14.919Z,15.45
2017-04-26T05:26:24.966Z,15.53
2017-04-26T05:27:35.315Z,15.59
2017-04-26T05:28:45.355Z,15.65
2017-04-26T05:29:55.096Z,15.62
2017-04-26T05:31:05.437Z,15.73
2017-04-26T05:32:15.800Z,15.7
2017-04-26T05:33:25.855Z,15.7
2017-04-26T05:34:36.202Z,15.75
2017-04-26T05:35:46.586Z,15.89
2017-04-26T05:36:56.931Z,15.88
2017-04-26T05:38:07.279Z,15.95
2017-04-26T05:39:17.355Z,16.04
2017-04-26T05:40:27.412Z,16.04
2017-04-26T05:41:37.462Z,16.14
2017-04-26T05:42:47.810Z,16.25
2017-04-26T05:43:58.173Z,16.33
2017-04-26T05:45:08.522Z,16.36
2017-04-26T05:46:18.865Z,16.45
2017-04-26T05:47:28.625Z,16.48
2017-04-26T05:48:39.024Z,16.58
2017-04-26T05:49:49.372Z,16.48
2017-04-26T05:50:59.727Z,16.59
2017-04-26T05:52:10.074Z,16.55
2017-04-26T05:53:20.096Z,16.44
2017-04-26T05:54:30.438Z,16.59
2017-04-26T05:55:40.475Z,16.59
2017-04-26T05:56:50.498Z,16.66
2017-04-26T05:58:00.871Z,16.72
2017-04-26T05:59:10.618Z,16.87
2017-04-26T06:00:20.994Z,16.94
2017-04-26T06:01:31.386Z,17.03
2017-04-26T06:02:41.730Z,17.1
2017-04-26T06:03:52.093Z,17.12
2017-04-26T06:05:02.130Z,17.17
2017-04-26T06:06:12.469Z,17.3
2017-04-26T06:07:22.837Z,17.36
2017-04-26T06:08:33.190Z,17.39
2017-04-26T06:09:43.543Z,17.49
2017-04-26T06:10:53.891Z,17.47
2017-04-26T06:12:04.245Z,17.68
2017-04-26T06:13:14.591Z,17.68
2017-04-26T06:14:24.627Z,17.74
2017-04-26T06:15:34.659Z,17.66
2017-04-26T06:16:45.016Z,17.66
2017-04-26T06:17:55.388Z,17.66
2017-04-26T06:19:05.759Z,17.66
2017-04-26T06:20:15.791Z,17.74
2017-04-26T06:21:25.832Z,17.77
2017-04-26T06:22:36.190Z,17.83
2017-04-26T06:23:46.541Z,17.9
2017-04-26T06:24:56.901Z,17.9
2017-04-26T06:26:07.249Z,17.84
2017-04-26T06:27:17.291Z,17.98
2017-04-26T06:28:27.336Z,18.11
2017-04-26T06:29:37.685Z,18.21
2017-04-26T06:30:48.029Z,18.29
2017-04-26T06:31:58.359Z,18.49
2017-04-26T06:33:08.395Z,18.54
2017-04-26T06:34:18.847Z,18.61
2017-04-26T06:35:29.196Z,18.54
2017-04-26T06:36:39.555Z,18.51
2017-04-26T06:37:49.916Z,18.56
2017-04-26T06:39:00.303Z,18.61
2017-04-26T06:40:10.652Z,18.63
2017-04-26T06:41:20.689Z,18.66
2017-04-26T06:42:31.033Z,18.75
2017-04-26T06:43:41.385Z,18.84
2017-04-26T06:44:51.749Z,18.89
2017-04-26T06:46:01.468Z,19.13
2017-04-26T06:47:11.507Z,19.16
2017-04-26T06:48:21.871Z,19.27
2017-04-26T06:49:32.233Z,19.43
2017-04-26T06:50:42.576Z,19.42
2017-04-26T06:51:52.921Z,19.4
2017-04-26T06:53:03.275Z,19.49
2017-04-26T06:54:13.335Z,19.43
2017-04-26T06:55:23.679Z,19.55
2017-04-26T06:56:34.063Z,19.45
2017-04-26T06:57:44.430Z,19.49
2017-04-26T06:58:54.475Z,19.52
2017-04-26T07:00:04.825Z,19.63
2017-04-26T07:01:15.173Z,19.68
2017-04-26T07:02:25.563Z,19.78
2017-04-26T07:03:35.923Z,19.87
2017-04-26T07:04:46.275Z,19.97
2017-04-26T07:05:56.622Z,20.11
2017-04-26T07:07:06.985Z,20.04
2017-04-26T07:08:17.326Z,20
2017-04-26T07:09:27.678Z,20.07
2017-04-26T07:10:37.744Z,20.15
2017-04-26T07:11:47.785Z,20.22
2017-04-26T07:12:58.132Z,20.3
2017-04-26T07:14:08.516Z,20.32
2017-04-26T07:15:18.897Z,20.3
2017-04-26T07:16:28.918Z,20.22
2017-04-26T07:17:39.258Z,20.25
2017-04-26T07:18:49.287Z,20.26
2017-04-26T07:19:59.323Z,20.4
2017-04-26T07:21:09.051Z,20.34
2017-04-26T07:22:19.397Z,20.48
2017-04-26T07:23:29.742Z,20.56
2017-04-26T07:24:39.786Z,20.75
2017-04-26T07:25:50.134Z,20.82
2017-04-26T07:27:00.225Z,20.83
2017-04-26T07:28:09.960Z,20.93
2017-04-26T07:29:20.292Z,20.94
2017-04-26T07:30:30.013Z,21.09
2017-04-26T07:31:40.066Z,21.27
2017-04-26T07:32:50.409Z,21.49
2017-04-26T07:34:00.449Z,21.49
2017-04-26T07:35:10.191Z,21.56
2017-04-26T07:36:20.219Z,21.62
2017-04-26T07:37:30.593Z,21.52
2017-04-26T07:38:40.923Z,21.56
2017-04-26T07:39:50.974Z,21.51
2017-04-26T07:41:01.318Z,21.53
2017-04-26T07:42:11.411Z,21.46
2017-04-26T07:43:21.765Z,21.46
2017-04-26T07:44:32.154Z,21.49
2017-04-26T07:45:42.521Z,21.58
2017-04-26T07:46:52.903Z,21.62
2017-04-26T07:48:03.278Z,21.82
2017-04-26T07:49:13.631Z,21.94
2017-04-26T07:50:23.674Z,21.99
2017-04-26T07:51:34.031Z,21.94
2017-04-26T07:52:44.077Z,21.9
2017-04-26T07:53:54.427Z,21.83
2017-04-26T07:55:04.756Z,21.94
2017-04-26T07:56:15.106Z,21.76
2017-04-26T07:57:25.142Z,21.8
2017-04-26T07:58:35.180Z,21.74
2017-04-26T07:59:45.252Z,21.76
2017-04-26T08:00:55.288Z,21.83
2017-04-26T08:02:05.635Z,21.92
2017-04-26T08:03:16.001Z,22.07
2017-04-26T08:04:25.740Z,22.12
2017-04-26T08:05:35.814Z,22.29
2017-04-26T08:06:46.202Z,22.3
2017-04-26T08:07:56.300Z,22.51
2017-04-26T08:09:06.652Z,22.7
2017-04-26T08:10:17.015Z,22.66
2017-04-26T08:11:27.059Z,22.88
2017-04-26T08:12:36.776Z,22.85
2017-04-26T08:13:47.170Z,22.85
2017-04-26T08:14:57.505Z,22.94
2017-04-26T08:16:07.868Z,23.09
2017-04-26T08:17:17.900Z,23.06
2017-04-26T08:18:28.246Z,22.89
2017-04-26T08:19:38.300Z,22.75
2017-04-26T08:20:48.666Z,22.42
2017-04-26T08:21:58.390Z,22.24
2017-04-26T08:23:08.748Z,22.22
2017-04-26T08:24:18.818Z,22.14
2017-04-26T08:25:28.270Z,22.15
2017-04-26T08:26:38.620Z,22.22
2017-04-26T08:27:48.656Z,22.26
2017-04-26T08:28:58.378Z,22.16
2017-04-26T08:30:08.727Z,22.24
2017-04-26T08:31:18.454Z,22.41
2017-04-26T08:32:28.805Z,22.49
2017-04-26T08:33:38.851Z,22.57
2017-04-26T08:34:49.205Z,22.46
2017-04-26T08:35:59.232Z,22.22
2017-04-26T08:37:09.638Z,22.46
2017-04-26T08:38:19.984Z,22.44
2017-04-26T08:39:30.021Z,22.08
2017-04-26T08:40:39.750Z,22
2017-04-26T08:41:50.097Z,21.94
2017-04-26T08:43:00.142Z,21.74
2017-04-26T08:44:10.186Z,21.52
2017-04-26T08:45:20.540Z,21.41
2017-04-26T08:46:30.916Z,21.23
2017-04-26T08:47:40.641Z,21.22
2017-04-26T08:48:50.991Z,21.28
2017-04-26T08:50:01.078Z,21.4
2017-04-26T08:51:11.412Z,21.25
2017-04-26T08:52:21.456Z,21.19
2017-04-26T08:53:31.836Z,21.16
2017-04-26T08:54:41.880Z,21.18
2017-04-26T08:55:51.896Z,21.16
2017-04-26T08:57:02.246Z,21.18
2017-04-26T08:58:12.519Z,21.28
2017-04-26T08:59:22.865Z,21.37
2017-04-26T09:00:32.600Z,21.48
2017-04-26T09:01:42.677Z,21.56
2017-04-26T09:02:53.037Z,21.67
2017-04-26T09:04:03.076Z,21.76
2017-04-26T09:05:12.828Z,21.83
2017-04-26T09:06:23.190Z,22.07
2017-04-26T09:07:32.919Z,22.16
2017-04-26T09:08:43.266Z,22.29
2017-04-26T09:09:53.615Z,22.22
2017-04-26T09:11:03.977Z,22.23
2017-04-26T09:12:14.329Z,22.16
2017-04-26T09:13:24.691Z,22.15
2017-04-26T09:14:34.742Z,22.16
2017-04-26T09:15:44.790Z,22.08
2017-04-26T09:16:54.850Z,22
2017-04-26T09:18:05.202Z,22.05
2017-04-26T09:19:15.533Z,22.23
2017-04-26T09:20:25.894Z,22.23
2017-04-26T09:21:35.948Z,22.31
2017-04-26T09:22:46.305Z,22.39
2017-04-26T09:23:56.339Z,22.46
2017-04-26T09:25:06.388Z,22.31
2017-04-26T09:26:16.414Z,22.33
2017-04-26T09:27:26.761Z,22.27
2017-04-26T09:28:36.789Z,22.11
2017-04-26T09:29:47.188Z,22.2
2017-04-26T09:30:57.217Z,22
2017-04-26T09:32:07.585Z,21.99
2017-04-26T09:33:17.611Z,21.97
2017-04-26T09:34:27.981Z,21.92
2017-04-26T09:35:38.329Z,21.85
2017-04-26T09:36:48.386Z,21.85
2017-04-26T09:37:58.733Z,21.78
2017-04-26T09:39:08.774Z,21.62
2017-04-26T09:40:18.510Z,21.55
2017-04-26T09:41:28.887Z,21.51
2017-04-26T09:42:38.924Z,21.48
2017-04-26T09:43:49.285Z,21.49
2017-04-26T09:44:59.635Z,21.46
2017-04-26T09:46:09.977Z,21.52
2017-04-26T09:47:20.352Z,21.53
2017-04-26T09:48:30.391Z,21.61
2017-04-26T09:49:40.745Z,21.58
2017-04-26T09:50:50.470Z,21.68
2017-04-26T09:52:00.507Z,21.7
2017-04-26T09:53:10.525Z,21.59
2017-04-26T09:54:20.881Z,21.62
2017-04-26T09:55:31.227Z,21.58
2017-04-26T09:56:40.949Z,21.61
2017-04-26T09:57:51.016Z,21.66
2017-04-26T09:59:01.383Z,21.76
2017-04-26T10:00:11.747Z,21.8
2017-04-26T10:01:22.091Z,21.96
2017-04-26T10:02:32.446Z,22
2017-04-26T10:03:42.826Z,22.11
2017-04-26T10:04:52.857Z,22.2
2017-04-26T10:06:03.209Z,22.27
2017-04-26T10:07:13.539Z,22.38
2017-04-26T10:08:23.877Z,22.6
2017-04-26T10:09:34.261Z,22.67
2017-04-26T10:10:44.608Z,22.7
2017-04-26T10:11:54.956Z,22.76
2017-04-26T10:13:05.313Z,22.91
2017-04-26T10:14:24.545Z,22.97
2017-04-26T10:15:49.107Z,23.01
2017-04-26T10:16:59.451Z,23.09
2017-04-26T10:18:09.806Z,23.04
2017-04-26T10:19:19.830Z,23.14
2017-04-26T10:20:29.854Z,23.06
2017-04-26T10:21:40.235Z,23.1
2017-04-26T10:22:50.279Z,23.24
2017-04-26T10:24:00.623Z,23.4
2017-04-26T10:25:10.970Z,23.5
2017-04-26T10:26:21.320Z,23.59
2017-04-26T10:27:31.681Z,23.6
2017-04-26T10:28:53.471Z,23.55
2017-04-26T10:30:21.251Z,23.63
2017-04-26T10:31:53.016Z,23.64
2017-04-26T10:33:02.750Z,23.75
2017-04-26T10:34:13.074Z,23.87
2017-04-26T10:35:23.425Z,24.17
2017-04-26T10:36:33.790Z,24.37
2017-04-26T10:37:43.826Z,24.7
2017-04-26T10:38:53.610Z,24.51
2017-04-26T10:40:03.661Z,24.33
2017-04-26T10:41:13.419Z,24.33
2017-04-26T10:42:23.853Z,24.26
2017-04-26T10:43:34.645Z,24.07
2017-04-26T10:44:47.028Z,24.04
2017-04-26T10:45:59.223Z,23.84
2017-04-26T10:47:09.844Z,24.03
2017-04-26T10:48:20.229Z,24.15
2017-04-26T10:49:30.628Z,24.33
2017-04-26T10:50:41.014Z,24.39
2017-04-26T10:51:51.395Z,24.64
2017-04-26T10:53:01.743Z,24.74
2017-04-26T10:54:12.104Z,25.02
2017-04-26T10:55:22.157Z,25.57
2017-04-26T10:56:32.541Z,25.86
2017-04-26T10:57:42.283Z,26.11
2017-04-26T10:58:52.635Z,26.09
2017-04-26T11:00:02.380Z,26.16
2017-04-26T11:01:12.739Z,26
2017-04-26T11:02:23.167Z,25.81
2017-04-26T11:03:33.218Z,25.62
2017-04-26T11:04:43.591Z,25.47
2017-04-26T11:05:53.653Z,25.56
2017-04-26T11:07:04.061Z,25.75
2017-04-26T11:08:13.804Z,25.82
2017-04-26T11:09:23.536Z,25.7
2017-04-26T11:10:33.590Z,25.6
2017-04-26T11:11:43.954Z,25.6
2017-04-26T11:12:54.002Z,25.45
2017-04-26T11:14:03.478Z,25.56
2017-04-26T11:15:13.859Z,25.74
2017-04-26T11:16:23.915Z,25.85
2017-04-26T11:17:34.277Z,25.84
2017-04-26T11:18:44.638Z,25.81
2017-04-26T11:19:55.011Z,25.6
2017-04-26T11:21:05.369Z,25.51
2017-04-26T11:22:15.740Z,25.38
2017-04-26T11:23:26.103Z,25.17
2017-04-26T11:24:36.488Z,25.19
2017-04-26T11:25:46.833Z,25.14
2017-04-26T11:26:57.187Z,25.27
2017-04-26T11:28:07.530Z,25.17
2017-04-26T11:29:17.898Z,25.12
2017-04-26T11:30:28.289Z,25.19
2017-04-26T11:31:38.669Z,25.14
2017-04-26T11:32:49.301Z,25.01
2017-04-26T11:33:59.647Z,25
2017-04-26T11:35:10.015Z,24.78
2017-04-26T11:36:20.072Z,24.82
2017-04-26T11:37:30.468Z,24.85
2017-04-26T11:38:40.829Z,25.12
2017-04-26T11:39:51.166Z,25.33
2017-04-26T11:41:01.189Z,25.63
2017-04-26T11:42:11.548Z,25.94
2017-04-26T11:43:21.902Z,26.03
2017-04-26T11:44:31.934Z,26.15
2017-04-26T11:45:42.285Z,26.27
2017-04-26T11:46:52.641Z,26.26
2017-04-26T11:48:02.681Z,26.35
2017-04-26T11:49:13.074Z,26.41
2017-04-26T11:50:23.131Z,26.59
2017-04-26T11:51:33.494Z,26.59
2017-04-26T11:52:43.849Z,26.61
2017-04-26T11:53:54.206Z,26.72
2017-04-26T11:55:04.555Z,26.72
2017-04-26T11:56:14.959Z,26.79
2017-04-26T11:57:25.322Z,26.79
2017-04-26T11:58:35.370Z,26.86
2017-04-26T11:59:45.761Z,26.96
2017-04-26T12:00:56.142Z,26.93
2017-04-26T12:02:06.226Z,26.91
2017-04-26T12:03:16.271Z,26.93
2017-04-26T12:04:26.616Z,26.91
2017-04-26T12:05:36.959Z,26.89
2017-04-26T12:06:47.020Z,26.97
2017-04-26T12:07:56.752Z,27.16
2017-04-26T12:09:07.127Z,27.33
2017-04-26T12:10:17.500Z,27.57
2017-04-26T12:11:27.845Z,27.36
2017-04-26T12:12:38.185Z,27.57
2017-04-26T12:13:48.537Z,27.72
2017-04-26T12:14:58.898Z,27.79
2017-04-26T12:16:09.303Z,27.64
2017-04-26T12:17:19.041Z,27.71
2017-04-26T12:18:29.411Z,27.91
2017-04-26T12:19:38.835Z,28.01
2017-04-26T12:20:49.198Z,28.08
2017-04-26T12:21:59.549Z,28.12
2017-04-26T12:23:09.931Z,28.11
2017-04-26T12:24:20.018Z,28.12
2017-04-26T12:25:30.383Z,28.09
2017-04-26T12:26:41.141Z,27.9
2017-04-26T12:27:51.701Z,27.55
2017-04-26T12:29:01.741Z,27.57
2017-04-26T12:30:12.124Z,27.52
2017-04-26T12:31:22.192Z,27.61
2017-04-26T12:32:32.247Z,27.41
2017-04-26T12:33:42.629Z,27.36
2017-04-26T12:34:52.668Z,27.33
2017-04-26T12:36:03.037Z,27.37
2017-04-26T12:37:13.424Z,27.51
2017-04-26T12:38:23.775Z,27.62
2017-04-26T12:39:33.859Z,27.83
2017-04-26T12:40:44.207Z,27.98
2017-04-26T12:41:54.240Z,28.12
2017-04-26T12:43:04.609Z,28.06
2017-04-26T12:44:14.976Z,28.05
2017-04-26T12:45:25.040Z,28.05
2017-04-26T12:46:35.396Z,28.01
2017-04-26T12:47:45.755Z,28.03
2017-04-26T12:48:55.778Z,28.03
2017-04-26T12:50:06.134Z,28.09
2017-04-26T12:51:16.497Z,27.98
2017-04-26T12:52:26.544Z,27.84
2017-04-26T12:53:36.904Z,27.83
2017-04-26T12:54:46.941Z,27.71
2017-04-26T12:55:56.988Z,27.57
2017-04-26T12:57:07.360Z,27.62
2017-04-26T12:58:17.736Z,27.36
2017-04-26T12:59:28.094Z,27.26
2017-04-26T13:00:38.487Z,27.06
2017-04-26T13:01:48.565Z,27.12
2017-04-26T13:02:58.946Z,27.06
2017-04-26T13:04:09.008Z,27.06
2017-04-26T13:05:19.432Z,26.93
2017-04-26T13:06:29.813Z,26.91
2017-04-26T13:07:40.180Z,26.72
2017-04-26T13:08:50.539Z,26.67
2017-04-26T13:10:00.887Z,26.52
2017-04-26T13:11:11.233Z,26.45
2017-04-26T13:12:21.591Z,26.42
2017-04-26T13:13:31.655Z,26.44
2017-04-26T13:14:42.066Z,26.42
2017-04-26T13:15:52.428Z,26.64
2017-04-26T13:17:02.559Z,26.76
2017-04-26T13:18:12.631Z,26.79
2017-04-26T13:19:22.678Z,26.74
2017-04-26T13:20:32.425Z,26.67
2017-04-26T13:21:42.883Z,26.64
2017-04-26T13:22:53.235Z,26.44
2017-04-26T13:24:03.599Z,26.34
2017-04-26T13:25:13.958Z,25.96
2017-04-26T13:26:24.343Z,25.85
2017-04-26T13:27:34.711Z,25.59
2017-04-26T13:28:45.127Z,25.47
2017-04-26T13:29:55.489Z,25.22
2017-04-26T13:31:05.870Z,25.02
2017-04-26T13:32:15.908Z,24.82
2017-04-26T13:33:25.949Z,24.7
2017-04-26T13:34:36.295Z,24.58
2017-04-26T13:35:46.330Z,24.4
2017-04-26T13:36:56.710Z,24.32
2017-04-26T13:38:07.072Z,24.09
2017-04-26T13:39:17.422Z,23.93
2017-04-26T13:40:27.791Z,23.87
2017-04-26T13:41:38.164Z,23.82
2017-04-26T13:42:48.209Z,23.71
2017-04-26T13:43:57.934Z,23.75
2017-04-26T13:45:08.288Z,23.87
2017-04-26T13:46:18.680Z,23.94
2017-04-26T13:47:29.045Z,24.08
2017-04-26T13:48:39.098Z,24.09
2017-04-26T13:49:49.471Z,24.08
2017-04-26T13:50:59.816Z,24.08
2017-04-26T13:52:10.168Z,24.02
2017-04-26T13:53:19.893Z,24.11
2017-04-26T13:54:30.486Z,24.19
2017-04-26T13:55:40.862Z,24.33
2017-04-26T13:56:51.272Z,24.22
2017-04-26T13:58:01.661Z,24.29
2017-04-26T13:59:11.716Z,24.19
2017-04-26T14:00:21.764Z,24.18
2017-04-26T14:01:31.804Z,24.07
2017-04-26T14:02:42.174Z,24
2017-04-26T14:03:52.616Z,24.07
2017-04-26T14:05:02.973Z,24.08
2017-04-26T14:06:13.017Z,24.02
2017-04-26T14:07:23.385Z,23.94
2017-04-26T14:08:33.454Z,23.85
2017-04-26T14:09:43.495Z,23.77
2017-04-26T14:10:53.849Z,23.7
2017-04-26T14:12:04.206Z,23.75
2017-04-26T14:13:14.578Z,23.67
2017-04-26T14:14:24.328Z,23.57
2017-04-26T14:15:34.731Z,23.55
2017-04-26T14:16:44.815Z,23.44
2017-04-26T14:17:55.200Z,23.28
2017-04-26T14:19:05.556Z,23.22
2017-04-26T14:20:15.853Z,23.25
2017-04-26T14:21:25.943Z,23.25
2017-04-26T14:22:36.288Z,23.19
2017-04-26T14:23:46.678Z,23.16
2017-04-26T14:24:57.027Z,22.97
2017-04-26T14:26:07.088Z,23.01
2017-04-26T14:27:17.017Z,22.88
2017-04-26T14:28:27.392Z,22.78
2017-04-26T14:29:36.820Z,22.73
2017-04-26T14:30:47.183Z,22.73
2017-04-26T14:31:57.577Z,22.75
2017-04-26T14:33:07.946Z,22.78
2017-04-26T14:34:17.980Z,22.7
2017-04-26T14:35:28.356Z,22.71
2017-04-26T14:36:38.723Z,22.76
2017-04-26T14:37:49.083Z,22.75
2017-04-26T14:38:59.443Z,22.7
2017-04-26T14:40:09.818Z,22.7
2017-04-26T14:41:20.178Z,22.7
2017-04-26T14:42:30.220Z,22.69
2017-04-26T14:43:40.583Z,22.75
2017-04-26T14:44:50.948Z,22.67
2017-04-26T14:46:01.333Z,22.54
2017-04-26T14:47:11.671Z,22.45
2017-04-26T14:48:21.722Z,22.36
2017-04-26T14:49:32.109Z,22.34
2017-04-26T14:50:42.485Z,22.3
2017-04-26T14:51:52.845Z,22.27
2017-04-26T14:53:03.223Z,22.16
2017-04-26T14:54:13.573Z,22.23
2017-04-26T14:55:23.929Z,22.15
2017-04-26T14:56:34.329Z,22
2017-04-26T14:57:44.390Z,21.86
2017-04-26T14:58:54.768Z,21.77
2017-04-26T15:00:05.129Z,21.71
2017-04-26T15:01:15.177Z,21.62
2017-04-26T15:02:25.288Z,21.58
2017-04-26T15:03:35.661Z,21.58
2017-04-26T15:04:46.093Z,21.51
2017-04-26T15:05:56.470Z,21.52
2017-04-26T15:07:06.844Z,21.56
2017-04-26T15:08:17.254Z,21.58
2017-04-26T15:09:27.623Z,21.49
2017-04-26T15:10:38.007Z,21.4
2017-04-26T15:11:48.384Z,21.38
2017-04-26T15:12:58.746Z,21.41
2017-04-26T15:14:09.148Z,21.45
2017-04-26T15:15:19.221Z,21.52
2017-04-26T15:16:29.595Z,21.38
2017-04-26T15:17:39.345Z,21.36
2017-04-26T15:18:49.714Z,21.22
2017-04-26T15:19:59.134Z,21.16
2017-04-26T15:21:09.418Z,21.06
2017-04-26T15:22:19.165Z,20.93
2017-04-26T15:23:29.227Z,20.88
2017-04-26T15:24:39.577Z,20.82
2017-04-26T15:25:49.953Z,20.81
2017-04-26T15:27:00.318Z,20.81
2017-04-26T15:28:10.381Z,20.74
2017-04-26T15:29:20.436Z,21.04
2017-04-26T15:30:30.818Z,21.27
2017-04-26T15:31:40.861Z,21.33
2017-04-26T15:32:50.962Z,21.28
2017-04-26T15:34:01.508Z,21.34
2017-04-26T15:35:11.905Z,21.31
2017-04-26T15:36:22.270Z,21.36
2017-04-26T15:37:32.388Z,21.3
2017-04-26T15:38:42.768Z,21.16
2017-04-26T15:39:52.842Z,21.03